sensor_id;sensor_type;location;lat;lon;timestamp;pressure;altitude;pressure_sealevel;temperature;humidity
77303;BME280;66363;49.828;7.856;2023-05-23T00:01:29;100062.28;;;16.70;81.86
77303;BME280;66363;49.828;7.856;2023-05-23T00:03:55;100054.00;;;16.54;82.73
77303;BME280;66363;49.828;7.856;2023-05-23T00:06:20;100079.16;;;16.80;82.49
77303;BME280;66363;49.828;7.856;2023-05-23T00:08:47;100085.25;;;16.73;82.67
77303;BME280;66363;49.828;7.856;2023-05-23T00:11:13;100078.78;;;16.66;83.80
77303;BME280;66363;49.828;7.856;2023-05-23T00:13:40;100066.25;;;16.56;84.10
77303;BME280;66363;49.828;7.856;2023-05-23T00:16:06;100073.16;;;16.59;84.34
77303;BME280;66363;49.828;7.856;2023-05-23T00:18:32;100084.41;;;16.72;83.37
77303;BME280;66363;49.828;7.856;2023-05-23T00:20:57;100077.34;;;16.71;83.39
77303;BME280;66363;49.828;7.856;2023-05-23T00:23:23;100074.31;;;16.56;84.38
77303;BME280;66363;49.828;7.856;2023-05-23T00:25:50;100065.56;;;16.54;83.82
77303;BME280;66363;49.828;7.856;2023-05-23T00:28:16;100091.75;;;16.70;83.22
77303;BME280;66363;49.828;7.856;2023-05-23T00:30:45;100093.69;;;16.78;82.62
77303;BME280;66363;49.828;7.856;2023-05-23T00:33:10;100090.31;;;16.76;83.52
77303;BME280;66363;49.828;7.856;2023-05-23T00:35:36;100080.44;;;16.76;83.05
77303;BME280;66363;49.828;7.856;2023-05-23T00:38:02;100051.75;;;16.59;82.95
77303;BME280;66363;49.828;7.856;2023-05-23T00:40:28;100074.63;;;16.81;83.12
77303;BME280;66363;49.828;7.856;2023-05-23T00:42:55;100088.88;;;16.81;83.81
77303;BME280;66363;49.828;7.856;2023-05-23T00:45:21;100052.50;;;16.79;81.79
77303;BME280;66363;49.828;7.856;2023-05-23T00:47:47;100086.09;;;17.01;81.32
77303;BME280;66363;49.828;7.856;2023-05-23T00:50:13;100090.00;;;17.06;81.73
77303;BME280;66363;49.828;7.856;2023-05-23T00:52:41;100061.97;;;17.01;81.72
77303;BME280;66363;49.828;7.856;2023-05-23T00:55:07;100084.25;;;17.19;80.49
77303;BME280;66363;49.828;7.856;2023-05-23T00:57:34;100092.56;;;17.25;81.50
77303;BME280;66363;49.828;7.856;2023-05-23T01:00:01;100099.47;;;17.28;81.19
77303;BME280;66363;49.828;7.856;2023-05-23T01:02:27;100086.75;;;17.30;80.32
77303;BME280;66363;49.828;7.856;2023-05-23T01:04:55;100098.75;;;17.44;79.95
77303;BME280;66363;49.828;7.856;2023-05-23T01:07:21;100070.88;;;17.37;78.74
77303;BME280;66363;49.828;7.856;2023-05-23T01:09:47;100109.97;;;17.57;80.19
77303;BME280;66363;49.828;7.856;2023-05-23T01:12:19;100099.00;;;17.50;78.94
77303;BME280;66363;49.828;7.856;2023-05-23T01:14:55;100095.25;;;17.61;81.28
77303;BME280;66363;49.828;7.856;2023-05-23T01:17:28;100106.06;;;17.69;78.59
77303;BME280;66363;49.828;7.856;2023-05-23T01:20:02;100110.97;;;17.56;78.79
77303;BME280;66363;49.828;7.856;2023-05-23T01:22:37;100112.03;;;17.45;78.72
77303;BME280;66363;49.828;7.856;2023-05-23T01:25:13;100088.78;;;17.18;78.88
77303;BME280;66363;49.828;7.856;2023-05-23T01:27:52;100101.81;;;17.13;79.56
77303;BME280;66363;49.828;7.856;2023-05-23T01:30:20;100116.91;;;17.14;79.92
77303;BME280;66363;49.828;7.856;2023-05-23T01:32:50;100113.91;;;17.17;78.80
77303;BME280;66363;49.828;7.856;2023-05-23T01:35:21;100106.63;;;17.10;77.52
77303;BME280;66363;49.828;7.856;2023-05-23T01:37:48;100117.22;;;17.11;78.02
77303;BME280;66363;49.828;7.856;2023-05-23T01:40:14;100108.97;;;16.95;78.66
77303;BME280;66363;49.828;7.856;2023-05-23T01:42:40;100123.34;;;16.94;77.46
77303;BME280;66363;49.828;7.856;2023-05-23T01:45:09;100115.97;;;16.78;77.25
77303;BME280;66363;49.828;7.856;2023-05-23T01:47:35;100108.25;;;16.66;77.30
77303;BME280;66363;49.828;7.856;2023-05-23T01:50:02;100119.41;;;16.61;77.41
77303;BME280;66363;49.828;7.856;2023-05-23T01:52:27;100122.81;;;16.53;77.83
77303;BME280;66363;49.828;7.856;2023-05-23T01:54:53;100105.41;;;16.30;78.07
77303;BME280;66363;49.828;7.856;2023-05-23T01:57:21;100118.81;;;16.30;77.58
77303;BME280;66363;49.828;7.856;2023-05-23T01:59:46;100112.47;;;16.21;77.96
77303;BME280;66363;49.828;7.856;2023-05-23T02:02:14;100117.00;;;16.11;77.53
77303;BME280;66363;49.828;7.856;2023-05-23T02:04:40;100117.16;;;16.10;78.05
77303;BME280;66363;49.828;7.856;2023-05-23T02:07:05;100140.97;;;16.03;78.91
77303;BME280;66363;49.828;7.856;2023-05-23T02:09:31;100142.66;;;15.94;79.13
77303;BME280;66363;49.828;7.856;2023-05-23T02:11:57;100139.28;;;15.92;78.88
77303;BME280;66363;49.828;7.856;2023-05-23T02:14:22;100146.75;;;15.89;78.12
77303;BME280;66363;49.828;7.856;2023-05-23T02:16:48;100130.44;;;15.82;78.77
77303;BME280;66363;49.828;7.856;2023-05-23T02:19:15;100137.91;;;15.79;79.15
77303;BME280;66363;49.828;7.856;2023-05-23T02:21:41;100146.91;;;15.68;79.43
77303;BME280;66363;49.828;7.856;2023-05-23T02:24:06;100130.53;;;15.52;80.37
77303;BME280;66363;49.828;7.856;2023-05-23T02:26:32;100141.66;;;15.47;81.15
77303;BME280;66363;49.828;7.856;2023-05-23T02:28:58;100142.03;;;15.33;81.64
77303;BME280;66363;49.828;7.856;2023-05-23T02:31:23;100148.22;;;15.34;81.35
77303;BME280;66363;49.828;7.856;2023-05-23T02:33:49;100126.00;;;15.23;81.15
77303;BME280;66363;49.828;7.856;2023-05-23T02:36:16;100157.66;;;15.38;80.88
77303;BME280;66363;49.828;7.856;2023-05-23T02:38:42;100145.81;;;15.21;81.74
77303;BME280;66363;49.828;7.856;2023-05-23T02:41:07;100138.47;;;15.04;81.22
77303;BME280;66363;49.828;7.856;2023-05-23T02:43:33;100165.06;;;15.15;81.80
77303;BME280;66363;49.828;7.856;2023-05-23T02:45:59;100155.75;;;15.00;81.81
77303;BME280;66363;49.828;7.856;2023-05-23T02:48:24;100144.94;;;15.01;81.56
77303;BME280;66363;49.828;7.856;2023-05-23T02:50:50;100177.72;;;15.13;81.42
77303;BME280;66363;49.828;7.856;2023-05-23T02:53:17;100168.00;;;15.12;79.97
77303;BME280;66363;49.828;7.856;2023-05-23T02:55:43;100157.03;;;15.05;80.01
77303;BME280;66363;49.828;7.856;2023-05-23T02:58:09;100164.50;;;15.11;80.37
77303;BME280;66363;49.828;7.856;2023-05-23T03:00:35;100151.13;;;15.02;80.54
77303;BME280;66363;49.828;7.856;2023-05-23T03:03:01;100144.31;;;14.88;80.99
77303;BME280;66363;49.828;7.856;2023-05-23T03:05:26;100137.00;;;14.80;81.39
77303;BME280;66363;49.828;7.856;2023-05-23T03:07:52;100171.66;;;15.01;81.73
77303;BME280;66363;49.828;7.856;2023-05-23T03:10:19;100183.00;;;14.93;82.72
77303;BME280;66363;49.828;7.856;2023-05-23T03:12:45;100173.22;;;14.73;83.19
77303;BME280;66363;49.828;7.856;2023-05-23T03:15:11;100180.41;;;14.73;82.92
77303;BME280;66363;49.828;7.856;2023-05-23T03:17:39;100154.16;;;14.57;82.93
77303;BME280;66363;49.828;7.856;2023-05-23T03:20:05;100155.06;;;14.67;82.83
77303;BME280;66363;49.828;7.856;2023-05-23T03:22:31;100179.63;;;14.61;83.47
77303;BME280;66363;49.828;7.856;2023-05-23T03:24:56;100171.16;;;14.56;82.43
77303;BME280;66363;49.828;7.856;2023-05-23T03:27:23;100181.28;;;14.52;83.70
77303;BME280;66363;49.828;7.856;2023-05-23T03:29:49;100170.66;;;14.41;82.96
77303;BME280;66363;49.828;7.856;2023-05-23T03:32:15;100171.69;;;14.50;83.33
77303;BME280;66363;49.828;7.856;2023-05-23T03:34:41;100188.44;;;14.52;83.72
77303;BME280;66363;49.828;7.856;2023-05-23T03:37:06;100159.50;;;14.36;83.76
77303;BME280;66363;49.828;7.856;2023-05-23T03:39:32;100178.47;;;14.54;83.64
77303;BME280;66363;49.828;7.856;2023-05-23T03:41:58;100192.84;;;14.63;82.70
77303;BME280;66363;49.828;7.856;2023-05-23T03:44:25;100185.34;;;14.56;83.25
77303;BME280;66363;49.828;7.856;2023-05-23T03:46:51;100177.19;;;14.48;82.15
77303;BME280;66363;49.828;7.856;2023-05-23T03:49:17;100182.63;;;14.68;82.16
77303;BME280;66363;49.828;7.856;2023-05-23T03:51:42;100204.91;;;14.87;80.56
77303;BME280;66363;49.828;7.856;2023-05-23T03:54:08;100197.22;;;14.94;79.81
77303;BME280;66363;49.828;7.856;2023-05-23T03:56:33;100207.06;;;14.93;82.11
77303;BME280;66363;49.828;7.856;2023-05-23T03:58:59;100182.75;;;14.97;80.11
77303;BME280;66363;49.828;7.856;2023-05-23T04:01:26;100204.91;;;15.18;81.90
77303;BME280;66363;49.828;7.856;2023-05-23T04:03:52;100195.09;;;15.28;79.60
77303;BME280;66363;49.828;7.856;2023-05-23T04:06:18;100210.03;;;15.40;79.02
77303;BME280;66363;49.828;7.856;2023-05-23T04:08:43;100210.06;;;15.50;76.25
77303;BME280;66363;49.828;7.856;2023-05-23T04:11:09;100184.25;;;15.39;75.98
77303;BME280;66363;49.828;7.856;2023-05-23T04:13:35;100215.00;;;15.54;75.31
77303;BME280;66363;49.828;7.856;2023-05-23T04:16:00;100220.97;;;15.58;74.55
77303;BME280;66363;49.828;7.856;2023-05-23T04:18:28;100191.03;;;15.43;74.16
77303;BME280;66363;49.828;7.856;2023-05-23T04:20:53;100206.88;;;15.56;75.58
77303;BME280;66363;49.828;7.856;2023-05-23T04:23:19;100213.47;;;15.61;74.17
77303;BME280;66363;49.828;7.856;2023-05-23T04:25:45;100203.63;;;15.62;75.36
77303;BME280;66363;49.828;7.856;2023-05-23T04:28:11;100228.88;;;15.79;74.15
77303;BME280;66363;49.828;7.856;2023-05-23T04:30:36;100204.34;;;15.74;73.51
77303;BME280;66363;49.828;7.856;2023-05-23T04:33:02;100223.09;;;15.83;74.53
77303;BME280;66363;49.828;7.856;2023-05-23T04:35:29;100227.19;;;15.97;72.81
77303;BME280;66363;49.828;7.856;2023-05-23T04:37:55;100231.28;;;16.01;72.55
77303;BME280;66363;49.828;7.856;2023-05-23T04:40:21;100215.34;;;15.90;72.34
77303;BME280;66363;49.828;7.856;2023-05-23T04:42:47;100221.69;;;15.99;72.93
77303;BME280;66363;49.828;7.856;2023-05-23T04:45:12;100218.88;;;16.00;72.08
77303;BME280;66363;49.828;7.856;2023-05-23T04:47:38;100222.69;;;15.98;71.33
77303;BME280;66363;49.828;7.856;2023-05-23T04:50:05;100219.88;;;15.99;72.18
77303;BME280;66363;49.828;7.856;2023-05-23T04:52:32;100236.06;;;16.07;70.75
77303;BME280;66363;49.828;7.856;2023-05-23T04:54:57;100247.47;;;16.19;71.33
77303;BME280;66363;49.828;7.856;2023-05-23T04:57:25;100219.88;;;16.09;70.63
77303;BME280;66363;49.828;7.856;2023-05-23T04:59:54;100229.03;;;16.06;72.31
77303;BME280;66363;49.828;7.856;2023-05-23T05:02:19;100243.09;;;15.99;71.78
77303;BME280;66363;49.828;7.856;2023-05-23T05:04:45;100237.03;;;15.97;71.25
77303;BME280;66363;49.828;7.856;2023-05-23T05:07:14;100231.53;;;15.88;71.95
77303;BME280;66363;49.828;7.856;2023-05-23T05:09:41;100237.59;;;15.90;72.29
77303;BME280;66363;49.828;7.856;2023-05-23T05:12:07;100256.34;;;16.00;71.40
77303;BME280;66363;49.828;7.856;2023-05-23T05:14:33;100256.34;;;16.00;72.37
77303;BME280;66363;49.828;7.856;2023-05-23T05:16:58;100256.06;;;16.03;72.35
77303;BME280;66363;49.828;7.856;2023-05-23T05:19:24;100258.47;;;16.06;72.75
77303;BME280;66363;49.828;7.856;2023-05-23T05:21:50;100260.31;;;16.06;72.99
77303;BME280;66363;49.828;7.856;2023-05-23T05:24:15;100266.78;;;16.13;72.45
77303;BME280;66363;49.828;7.856;2023-05-23T05:26:42;100273.69;;;16.15;72.41
77303;BME280;66363;49.828;7.856;2023-05-23T05:29:08;100249.47;;;16.07;72.40
77303;BME280;66363;49.828;7.856;2023-05-23T05:31:34;100257.91;;;16.12;71.36
77303;BME280;66363;49.828;7.856;2023-05-23T05:33:59;100283.81;;;16.12;72.25
77303;BME280;66363;49.828;7.856;2023-05-23T05:36:25;100292.03;;;16.10;71.18
77303;BME280;66363;49.828;7.856;2023-05-23T05:38:51;100297.22;;;16.02;69.48
77303;BME280;66363;49.828;7.856;2023-05-23T05:41:16;100288.19;;;15.93;70.02
77303;BME280;66363;49.828;7.856;2023-05-23T05:43:43;100289.31;;;16.01;69.17
77303;BME280;66363;49.828;7.856;2023-05-23T05:46:10;100296.50;;;16.00;70.18
77303;BME280;66363;49.828;7.856;2023-05-23T05:48:35;100291.44;;;15.97;68.55
77303;BME280;66363;49.828;7.856;2023-05-23T05:51:01;100300.31;;;16.07;68.39
77303;BME280;66363;49.828;7.856;2023-05-23T05:53:27;100306.94;;;16.13;68.55
77303;BME280;66363;49.828;7.856;2023-05-23T05:55:53;100309.75;;;16.21;68.30
77303;BME280;66363;49.828;7.856;2023-05-23T05:58:18;100313.16;;;16.23;67.78
77303;BME280;66363;49.828;7.856;2023-05-23T06:00:46;100313.72;;;16.26;68.23
77303;BME280;66363;49.828;7.856;2023-05-23T06:03:12;100311.34;;;16.33;67.53
77303;BME280;66363;49.828;7.856;2023-05-23T06:05:37;100299.91;;;16.41;67.10
77303;BME280;66363;49.828;7.856;2023-05-23T06:08:03;100296.91;;;16.92;66.57
77303;BME280;66363;49.828;7.856;2023-05-23T06:10:29;100320.25;;;17.19;64.52
77303;BME280;66363;49.828;7.856;2023-05-23T06:12:54;100310.84;;;17.15;63.98
77303;BME280;66363;49.828;7.856;2023-05-23T06:15:20;100322.78;;;17.20;63.01
77303;BME280;66363;49.828;7.856;2023-05-23T06:17:47;100291.94;;;17.07;63.75
77303;BME280;66363;49.828;7.856;2023-05-23T06:20:13;100300.94;;;17.15;64.03
77303;BME280;66363;49.828;7.856;2023-05-23T06:22:39;100320.97;;;17.21;63.94
77303;BME280;66363;49.828;7.856;2023-05-23T06:25:06;100311.69;;;17.06;65.16
77303;BME280;66363;49.828;7.856;2023-05-23T06:27:31;100326.94;;;17.05;65.20
77303;BME280;66363;49.828;7.856;2023-05-23T06:29:57;100325.66;;;17.09;65.75
77303;BME280;66363;49.828;7.856;2023-05-23T06:32:23;100313.72;;;16.84;65.08
77303;BME280;66363;49.828;7.856;2023-05-23T06:34:50;100311.19;;;16.73;65.51
77303;BME280;66363;49.828;7.856;2023-05-23T06:37:15;100319.78;;;16.86;65.95
77303;BME280;66363;49.828;7.856;2023-05-23T06:39:41;100299.50;;;16.74;65.84
77303;BME280;66363;49.828;7.856;2023-05-23T06:42:07;100326.72;;;16.79;65.46
77303;BME280;66363;49.828;7.856;2023-05-23T06:44:32;100317.25;;;16.66;66.34
77303;BME280;66363;49.828;7.856;2023-05-23T06:46:58;100331.78;;;16.73;66.48
77303;BME280;66363;49.828;7.856;2023-05-23T06:49:24;100330.09;;;16.62;67.24
77303;BME280;66363;49.828;7.856;2023-05-23T06:51:51;100320.91;;;16.45;66.16
77303;BME280;66363;49.828;7.856;2023-05-23T06:54:17;100346.88;;;16.54;67.18
77303;BME280;66363;49.828;7.856;2023-05-23T06:56:43;100329.09;;;16.34;66.94
77303;BME280;66363;49.828;7.856;2023-05-23T06:59:08;100336.69;;;16.29;67.62
77303;BME280;66363;49.828;7.856;2023-05-23T07:01:34;100323.44;;;16.27;67.79
77303;BME280;66363;49.828;7.856;2023-05-23T07:04:00;100344.59;;;16.40;67.45
77303;BME280;66363;49.828;7.856;2023-05-23T07:06:26;100356.28;;;16.39;68.25
77303;BME280;66363;49.828;7.856;2023-05-23T07:08:54;100356.72;;;16.44;67.33
77303;BME280;66363;49.828;7.856;2023-05-23T07:11:20;100350.53;;;16.53;67.74
77303;BME280;66363;49.828;7.856;2023-05-23T07:13:45;100366.19;;;16.68;68.05
77303;BME280;66363;49.828;7.856;2023-05-23T07:16:11;100357.59;;;16.74;65.87
77303;BME280;66363;49.828;7.856;2023-05-23T07:18:37;100366.34;;;16.66;66.48
77303;BME280;66363;49.828;7.856;2023-05-23T07:21:02;100359.56;;;16.52;66.95
77303;BME280;66363;49.828;7.856;2023-05-23T07:23:31;100359.44;;;16.63;66.83
77303;BME280;66363;49.828;7.856;2023-05-23T07:25:58;100354.50;;;16.69;67.12
77303;BME280;66363;49.828;7.856;2023-05-23T07:28:24;100358.31;;;16.76;66.24
77303;BME280;66363;49.828;7.856;2023-05-23T07:30:49;100367.19;;;16.76;67.91
77303;BME280;66363;49.828;7.856;2023-05-23T07:33:15;100367.63;;;16.72;68.11
77303;BME280;66363;49.828;7.856;2023-05-23T07:35:41;100332.63;;;16.63;66.32
77303;BME280;66363;49.828;7.856;2023-05-23T07:38:06;100362.25;;;16.81;65.05
77303;BME280;66363;49.828;7.856;2023-05-23T07:40:32;100359.81;;;16.98;64.33
77303;BME280;66363;49.828;7.856;2023-05-23T07:42:59;100349.53;;;17.12;63.15
77303;BME280;66363;49.828;7.856;2023-05-23T07:45:24;100358.09;;;17.16;63.76
77303;BME280;66363;49.828;7.856;2023-05-23T07:47:50;100349.25;;;17.43;62.58
77303;BME280;66363;49.828;7.856;2023-05-23T07:50:17;100365.13;;;17.73;61.85
77303;BME280;66363;49.828;7.856;2023-05-23T07:52:42;100350.13;;;17.80;61.72
77303;BME280;66363;49.828;7.856;2023-05-23T07:55:09;100358.66;;;17.93;63.52
77303;BME280;66363;49.828;7.856;2023-05-23T07:57:34;100370.09;;;17.95;62.17
77303;BME280;66363;49.828;7.856;2023-05-23T08:00:01;100376.78;;;17.91;61.29
77303;BME280;66363;49.828;7.856;2023-05-23T08:02:27;100375.53;;;17.86;64.63
77303;BME280;66363;49.828;7.856;2023-05-23T08:04:52;100377.97;;;17.79;64.34
77303;BME280;66363;49.828;7.856;2023-05-23T08:07:18;100381.75;;;17.86;63.44
77303;BME280;66363;49.828;7.856;2023-05-23T08:09:43;100382.19;;;17.82;63.51
77303;BME280;66363;49.828;7.856;2023-05-23T08:12:09;100383.50;;;18.23;63.58
77303;BME280;66363;49.828;7.856;2023-05-23T08:14:35;100370.84;;;18.60;62.16
77303;BME280;66363;49.828;7.856;2023-05-23T08:17:02;100370.59;;;18.89;61.72
77303;BME280;66363;49.828;7.856;2023-05-23T08:19:27;100381.16;;;19.09;60.21
77303;BME280;66363;49.828;7.856;2023-05-23T08:21:53;100378.94;;;19.04;59.66
77303;BME280;66363;49.828;7.856;2023-05-23T08:24:18;100374.94;;;19.08;60.10
77303;BME280;66363;49.828;7.856;2023-05-23T08:26:44;100377.44;;;18.84;61.93
77303;BME280;66363;49.828;7.856;2023-05-23T08:29:10;100361.81;;;19.05;60.11
77303;BME280;66363;49.828;7.856;2023-05-23T08:31:35;100382.94;;;19.00;61.69
77303;BME280;66363;49.828;7.856;2023-05-23T08:34:02;100383.88;;;18.55;61.93
77303;BME280;66363;49.828;7.856;2023-05-23T08:36:28;100382.47;;;18.34;62.82
77303;BME280;66363;49.828;7.856;2023-05-23T08:38:53;100386.94;;;18.43;62.83
77303;BME280;66363;49.828;7.856;2023-05-23T08:41:19;100385.00;;;18.35;62.76
77303;BME280;66363;49.828;7.856;2023-05-23T08:44:03;100380.78;;;18.33;62.31
77303;BME280;66363;49.828;7.856;2023-05-23T08:46:29;100389.00;;;18.31;63.63
77303;BME280;66363;49.828;7.856;2023-05-23T08:48:58;100385.34;;;18.22;62.62
77303;BME280;66363;49.828;7.856;2023-05-23T08:51:26;100388.75;;;17.97;63.40
77303;BME280;66363;49.828;7.856;2023-05-23T08:53:52;100380.56;;;17.98;63.46
77303;BME280;66363;49.828;7.856;2023-05-23T08:56:19;100395.63;;;18.09;62.83
77303;BME280;66363;49.828;7.856;2023-05-23T08:58:44;100387.91;;;17.96;62.09
77303;BME280;66363;49.828;7.856;2023-05-23T09:01:12;100390.00;;;18.03;64.35
77303;BME280;66363;49.828;7.856;2023-05-23T09:03:38;100399.16;;;17.82;64.31
77303;BME280;66363;49.828;7.856;2023-05-23T09:06:05;100398.66;;;17.96;63.92
77303;BME280;66363;49.828;7.856;2023-05-23T09:08:32;100390.22;;;17.91;64.30
77303;BME280;66363;49.828;7.856;2023-05-23T09:10:58;100395.78;;;18.08;64.03
77303;BME280;66363;49.828;7.856;2023-05-23T09:13:24;100381.94;;;18.30;63.66
77303;BME280;66363;49.828;7.856;2023-05-23T09:15:57;100386.66;;;18.81;62.18
77303;BME280;66363;49.828;7.856;2023-05-23T09:18:25;100407.56;;;19.31;59.82
77303;BME280;66363;49.828;7.856;2023-05-23T09:20:51;100386.78;;;19.41;59.13
77303;BME280;66363;49.828;7.856;2023-05-23T09:23:16;100403.69;;;19.51;58.01
77303;BME280;66363;49.828;7.856;2023-05-23T09:25:46;100414.00;;;19.38;58.90
77303;BME280;66363;49.828;7.856;2023-05-23T09:28:12;100391.28;;;18.89;60.48
77303;BME280;66363;49.828;7.856;2023-05-23T09:30:38;100402.09;;;18.79;61.06
77303;BME280;66363;49.828;7.856;2023-05-23T09:33:04;100416.22;;;18.18;61.68
77303;BME280;66363;49.828;7.856;2023-05-23T09:35:29;100425.47;;;18.06;61.40
77303;BME280;66363;49.828;7.856;2023-05-23T09:37:56;100428.41;;;18.13;62.40
77303;BME280;66363;49.828;7.856;2023-05-23T09:40:28;100421.69;;;18.26;63.43
77303;BME280;66363;49.828;7.856;2023-05-23T09:43:01;100429.88;;;17.97;62.13
77303;BME280;66363;49.828;7.856;2023-05-23T09:45:28;100427.25;;;17.88;62.53
77303;BME280;66363;49.828;7.856;2023-05-23T09:47:54;100424.44;;;17.80;62.91
77303;BME280;66363;49.828;7.856;2023-05-23T09:50:20;100434.06;;;17.82;63.64
77303;BME280;66363;49.828;7.856;2023-05-23T09:52:46;100432.25;;;17.73;64.15
77303;BME280;66363;49.828;7.856;2023-05-23T09:55:12;100430.72;;;17.98;64.56
77303;BME280;66363;49.828;7.856;2023-05-23T09:57:41;100421.38;;;18.29;62.88
77303;BME280;66363;49.828;7.856;2023-05-23T10:00:10;100414.13;;;18.57;61.20
77303;BME280;66363;49.828;7.856;2023-05-23T10:02:54;100412.41;;;19.27;61.22
77303;BME280;66363;49.828;7.856;2023-05-23T10:05:29;100419.53;;;20.97;55.25
77303;BME280;66363;49.828;7.856;2023-05-23T10:07:57;100422.75;;;21.41;53.59
77303;BME280;66363;49.828;7.856;2023-05-23T10:10:25;100427.47;;;21.55;53.19
77303;BME280;66363;49.828;7.856;2023-05-23T10:12:55;100407.09;;;21.20;52.03
77303;BME280;66363;49.828;7.856;2023-05-23T10:15:26;100417.84;;;20.88;54.99
77303;BME280;66363;49.828;7.856;2023-05-23T10:18:04;100420.84;;;20.52;54.90
77303;BME280;66363;49.828;7.856;2023-05-23T10:20:32;100418.81;;;19.78;55.42
77303;BME280;66363;49.828;7.856;2023-05-23T10:22:59;100429.81;;;19.59;59.66
77303;BME280;66363;49.828;7.856;2023-05-23T10:25:26;100445.97;;;19.59;58.18
77303;BME280;66363;49.828;7.856;2023-05-23T10:27:54;100435.25;;;19.23;57.69
77303;BME280;66363;49.828;7.856;2023-05-23T10:30:20;100430.47;;;19.35;59.09
77303;BME280;66363;49.828;7.856;2023-05-23T10:32:47;100445.28;;;19.57;58.22
77303;BME280;66363;49.828;7.856;2023-05-23T10:35:20;100442.66;;;19.65;57.93
77303;BME280;66363;49.828;7.856;2023-05-23T10:37:54;100435.25;;;19.49;57.33
77303;BME280;66363;49.828;7.856;2023-05-23T10:40:30;100428.69;;;19.44;58.08
77303;BME280;66363;49.828;7.856;2023-05-23T10:43:03;100458.22;;;19.36;58.15
77303;BME280;66363;49.828;7.856;2023-05-23T10:45:38;100436.56;;;19.02;58.10
77303;BME280;66363;49.828;7.856;2023-05-23T10:48:19;100435.78;;;18.56;60.25
77303;BME280;66363;49.828;7.856;2023-05-23T10:50:45;100464.25;;;18.49;61.43
77303;BME280;66363;49.828;7.856;2023-05-23T10:53:15;100461.56;;;18.49;61.62
77303;BME280;66363;49.828;7.856;2023-05-23T10:55:40;100463.31;;;18.40;63.86
77303;BME280;66363;49.828;7.856;2023-05-23T10:58:15;100477.22;;;18.36;63.53
77303;BME280;66363;49.828;7.856;2023-05-23T11:00:50;100479.31;;;18.42;62.52
77303;BME280;66363;49.828;7.856;2023-05-23T11:03:17;100482.22;;;18.76;62.30
77303;BME280;66363;49.828;7.856;2023-05-23T11:05:47;100471.94;;;18.89;60.66
77303;BME280;66363;49.828;7.856;2023-05-23T11:08:18;100478.78;;;19.01;60.83
77303;BME280;66363;49.828;7.856;2023-05-23T11:10:52;100476.63;;;18.69;61.16
77303;BME280;66363;49.828;7.856;2023-05-23T11:13:19;100479.06;;;18.80;61.19
77303;BME280;66363;49.828;7.856;2023-05-23T11:15:44;100479.63;;;18.56;61.33
77303;BME280;66363;49.828;7.856;2023-05-23T11:18:21;100482.50;;;18.45;62.89
77303;BME280;66363;49.828;7.856;2023-05-23T11:20:49;100479.91;;;18.36;64.82
77303;BME280;66363;49.828;7.856;2023-05-23T11:23:16;100477.78;;;18.57;62.42
77303;BME280;66363;49.828;7.856;2023-05-23T11:25:43;100469.22;;;18.71;62.73
77303;BME280;66363;49.828;7.856;2023-05-23T11:28:09;100450.03;;;19.02;60.20
77303;BME280;66363;49.828;7.856;2023-05-23T11:30:35;100471.56;;;19.63;60.33
77303;BME280;66363;49.828;7.856;2023-05-23T11:33:05;100477.25;;;20.12;57.76
77303;BME280;66363;49.828;7.856;2023-05-23T11:35:34;100466.72;;;20.26;57.37
77303;BME280;66363;49.828;7.856;2023-05-23T11:37:59;100461.88;;;20.38;57.00
77303;BME280;66363;49.828;7.856;2023-05-23T11:40:28;100482.22;;;20.32;56.29
77303;BME280;66363;49.828;7.856;2023-05-23T11:42:54;100455.59;;;20.29;55.42
77303;BME280;66363;49.828;7.856;2023-05-23T11:45:20;100475.66;;;20.35;56.52
77303;BME280;66363;49.828;7.856;2023-05-23T11:47:46;100477.50;;;20.34;56.56
77303;BME280;66363;49.828;7.856;2023-05-23T11:50:12;100481.88;;;20.36;55.79
77303;BME280;66363;49.828;7.856;2023-05-23T11:52:39;100482.81;;;20.44;55.73
77303;BME280;66363;49.828;7.856;2023-05-23T11:55:06;100480.97;;;20.53;56.22
77303;BME280;66363;49.828;7.856;2023-05-23T11:57:32;100456.94;;;20.25;55.34
77303;BME280;66363;49.828;7.856;2023-05-23T11:59:58;100446.31;;;20.24;55.73
77303;BME280;66363;49.828;7.856;2023-05-23T12:02:24;100479.97;;;19.86;56.75
77303;BME280;66363;49.828;7.856;2023-05-23T12:04:52;100480.44;;;19.81;55.75
77303;BME280;66363;49.828;7.856;2023-05-23T12:07:18;100478.06;;;19.78;56.57
77303;BME280;66363;49.828;7.856;2023-05-23T12:09:45;100462.91;;;19.77;57.60
77303;BME280;66363;49.828;7.856;2023-05-23T12:12:13;100467.66;;;19.57;57.22
77303;BME280;66363;49.828;7.856;2023-05-23T12:14:39;100472.50;;;19.54;57.15
77303;BME280;66363;49.828;7.856;2023-05-23T12:17:06;100464.69;;;19.25;58.28
77303;BME280;66363;49.828;7.856;2023-05-23T12:19:44;100475.16;;;19.10;58.41
77303;BME280;66363;49.828;7.856;2023-05-23T12:22:09;100478.56;;;18.94;59.89
77303;BME280;66363;49.828;7.856;2023-05-23T12:24:43;100472.25;;;19.21;58.86
77303;BME280;66363;49.828;7.856;2023-05-23T12:27:09;100470.91;;;19.43;58.02
77303;BME280;66363;49.828;7.856;2023-05-23T12:29:35;100474.28;;;19.45;57.35
77303;BME280;66363;49.828;7.856;2023-05-23T12:32:02;100470.69;;;19.37;57.48
77303;BME280;66363;49.828;7.856;2023-05-23T12:34:28;100477.53;;;19.31;57.23
77303;BME280;66363;49.828;7.856;2023-05-23T12:36:56;100474.09;;;19.21;57.32
77303;BME280;66363;49.828;7.856;2023-05-23T12:39:23;100465.63;;;19.16;57.42
77303;BME280;66363;49.828;7.856;2023-05-23T12:41:49;100477.69;;;19.29;57.22
77303;BME280;66363;49.828;7.856;2023-05-23T12:44:15;100462.88;;;19.08;57.14
77303;BME280;66363;49.828;7.856;2023-05-23T12:46:40;100470.63;;;19.11;58.10
77303;BME280;66363;49.828;7.856;2023-05-23T12:49:06;100478.47;;;19.04;58.04